sensor_id;sensor_type;location;lat;lon;timestamp;temperature;humidity
37050;DHT22;22958;51.232;6.826;2024-03-02T00:01:51;8.40;99.90
37050;DHT22;22958;51.232;6.826;2024-03-02T00:04:17;8.40;99.90
37050;DHT22;22958;51.232;6.826;2024-03-02T00:06:42;8.40;99.90
37050;DHT22;22958;51.232;6.826;2024-03-02T00:09:09;8.40;99.90
37050;DHT22;22958;51.232;6.826;2024-03-02T00:11:37;8.40;99.90
37050;DHT22;22958;51.232;6.826;2024-03-02T00:14:04;8.40;99.90
37050;DHT22;22958;51.232;6.826;2024-03-02T00:16:32;8.40;99.90
37050;DHT22;22958;51.232;6.826;2024-03-02T00:19:03;8.40;99.90
37050;DHT22;22958;51.232;6.826;2024-03-02T00:21:31;8.40;99.90
37050;DHT22;22958;51.232;6.826;2024-03-02T00:23:57;8.50;99.90
37050;DHT22;22958;51.232;6.826;2024-03-02T00:26:22;8.50;99.90
37050;DHT22;22958;51.232;6.826;2024-03-02T00:28:48;8.50;99.90
37050;DHT22;22958;51.232;6.826;2024-03-02T00:31:15;8.60;99.90
37050;DHT22;22958;51.232;6.826;2024-03-02T00:33:47;8.60;99.90
37050;DHT22;22958;51.232;6.826;2024-03-02T00:36:14;8.60;99.90
37050;DHT22;22958;51.232;6.826;2024-03-02T00:38:50;8.60;99.90
37050;DHT22;22958;51.232;6.826;2024-03-02T00:41:25;8.60;99.90
37050;DHT22;22958;51.232;6.826;2024-03-02T00:44:04;8.60;99.90
37050;DHT22;22958;51.232;6.826;2024-03-02T00:46:36;8.70;99.90
37050;DHT22;22958;51.232;6.826;2024-03-02T00:49:10;8.70;99.90
37050;DHT22;22958;51.232;6.826;2024-03-02T00:51:37;8.70;99.90
37050;DHT22;22958;51.232;6.826;2024-03-02T00:54:05;8.70;99.90
37050;DHT22;22958;51.232;6.826;2024-03-02T00:56:32;8.70;99.90
37050;DHT22;22958;51.232;6.826;2024-03-02T00:58:57;8.80;99.90
37050;DHT22;22958;51.232;6.826;2024-03-02T01:01:23;8.80;99.90
37050;DHT22;22958;51.232;6.826;2024-03-02T01:03:49;8.80;99.90
37050;DHT22;22958;51.232;6.826;2024-03-02T01:06:15;8.80;99.90
37050;DHT22;22958;51.232;6.826;2024-03-02T01:08:41;8.90;99.90
37050;DHT22;22958;51.232;6.826;2024-03-02T01:11:07;8.80;99.90
37050;DHT22;22958;51.232;6.826;2024-03-02T01:13:33;8.80;99.90
37050;DHT22;22958;51.232;6.826;2024-03-02T01:15:59;8.80;99.90
37050;DHT22;22958;51.232;6.826;2024-03-02T01:18:25;8.90;99.90
37050;DHT22;22958;51.232;6.826;2024-03-02T01:20:51;8.90;99.90
37050;DHT22;22958;51.232;6.826;2024-03-02T01:23:22;8.80;99.90
37050;DHT22;22958;51.232;6.826;2024-03-02T01:25:47;8.80;99.90
37050;DHT22;22958;51.232;6.826;2024-03-02T01:28:14;8.70;99.90
37050;DHT22;22958;51.232;6.826;2024-03-02T01:30:40;8.60;99.90
37050;DHT22;22958;51.232;6.826;2024-03-02T01:33:05;8.70;99.90
37050;DHT22;22958;51.232;6.826;2024-03-02T01:35:32;8.70;99.90
37050;DHT22;22958;51.232;6.826;2024-03-02T01:37:57;8.60;99.90
37050;DHT22;22958;51.232;6.826;2024-03-02T01:40:23;8.60;99.90
37050;DHT22;22958;51.232;6.826;2024-03-02T01:42:53;8.60;99.90
37050;DHT22;22958;51.232;6.826;2024-03-02T01:45:23;8.70;99.90
37050;DHT22;22958;51.232;6.826;2024-03-02T01:47:49;8.70;99.90
37050;DHT22;22958;51.232;6.826;2024-03-02T01:50:15;8.60;99.90
37050;DHT22;22958;51.232;6.826;2024-03-02T01:52:41;8.70;99.90
37050;DHT22;22958;51.232;6.826;2024-03-02T01:55:06;8.60;99.90
37050;DHT22;22958;51.232;6.826;2024-03-02T01:57:33;8.70;99.90
37050;DHT22;22958;51.232;6.826;2024-03-02T01:59:59;8.70;99.90
37050;DHT22;22958;51.232;6.826;2024-03-02T02:02:25;8.70;99.90
37050;DHT22;22958;51.232;6.826;2024-03-02T02:04:51;8.70;99.90
37050;DHT22;22958;51.232;6.826;2024-03-02T02:07:16;8.80;99.90
37050;DHT22;22958;51.232;6.826;2024-03-02T02:09:42;8.80;99.90
37050;DHT22;22958;51.232;6.826;2024-03-02T02:12:09;8.80;99.90
37050;DHT22;22958;51.232;6.826;2024-03-02T02:14:34;8.90;99.90
37050;DHT22;22958;51.232;6.826;2024-03-02T02:17:00;9.00;99.90
37050;DHT22;22958;51.232;6.826;2024-03-02T02:19:25;9.00;99.90
37050;DHT22;22958;51.232;6.826;2024-03-02T02:21:51;9.10;99.90
37050;DHT22;22958;51.232;6.826;2024-03-02T02:24:16;9.10;99.90
37050;DHT22;22958;51.232;6.826;2024-03-02T02:26:42;9.10;99.90
37050;DHT22;22958;51.232;6.826;2024-03-02T02:29:07;9.10;99.90
37050;DHT22;22958;51.232;6.826;2024-03-02T02:31:37;9.10;99.90
37050;DHT22;22958;51.232;6.826;2024-03-02T02:34:03;9.10;99.90
37050;DHT22;22958;51.232;6.826;2024-03-02T02:36:28;9.20;99.90
37050;DHT22;22958;51.232;6.826;2024-03-02T02:38:54;9.30;99.90
37050;DHT22;22958;51.232;6.826;2024-03-02T02:41:20;9.40;99.90
37050;DHT22;22958;51.232;6.826;2024-03-02T02:43:45;9.40;99.90
37050;DHT22;22958;51.232;6.826;2024-03-02T02:46:11;9.40;99.90
37050;DHT22;22958;51.232;6.826;2024-03-02T02:48:36;9.40;99.90
37050;DHT22;22958;51.232;6.826;2024-03-02T02:51:02;9.50;99.90
37050;DHT22;22958;51.232;6.826;2024-03-02T02:53:28;9.40;99.90
37050;DHT22;22958;51.232;6.826;2024-03-02T02:55:53;9.40;99.90
37050;DHT22;22958;51.232;6.826;2024-03-02T02:58:18;9.30;99.90
37050;DHT22;22958;51.232;6.826;2024-03-02T03:00:44;9.30;99.90
37050;DHT22;22958;51.232;6.826;2024-03-02T03:03:09;9.30;99.90
37050;DHT22;22958;51.232;6.826;2024-03-02T03:05:35;9.30;99.90
37050;DHT22;22958;51.232;6.826;2024-03-02T03:08:01;9.30;99.90
37050;DHT22;22958;51.232;6.826;2024-03-02T03:10:26;9.30;99.90
37050;DHT22;22958;51.232;6.826;2024-03-02T03:12:53;9.20;99.90
37050;DHT22;22958;51.232;6.826;2024-03-02T03:15:18;9.30;99.90
37050;DHT22;22958;51.232;6.826;2024-03-02T03:17:44;9.20;99.90
37050;DHT22;22958;51.232;6.826;2024-03-02T03:20:11;9.20;99.90
37050;DHT22;22958;51.232;6.826;2024-03-02T03:22:37;9.30;99.90
37050;DHT22;22958;51.232;6.826;2024-03-02T03:25:03;9.20;99.90
37050;DHT22;22958;51.232;6.826;2024-03-02T03:27:29;9.30;99.90
37050;DHT22;22958;51.232;6.826;2024-03-02T03:29:54;9.30;99.90
37050;DHT22;22958;51.232;6.826;2024-03-02T03:32:20;9.30;99.90
37050;DHT22;22958;51.232;6.826;2024-03-02T03:34:46;9.30;99.90
37050;DHT22;22958;51.232;6.826;2024-03-02T03:37:13;9.30;99.90
37050;DHT22;22958;51.232;6.826;2024-03-02T03:39:39;9.30;99.90
37050;DHT22;22958;51.232;6.826;2024-03-02T03:42:04;9.30;99.90
37050;DHT22;22958;51.232;6.826;2024-03-02T03:44:31;9.30;99.90
37050;DHT22;22958;51.232;6.826;2024-03-02T03:46:56;9.20;99.90
37050;DHT22;22958;51.232;6.826;2024-03-02T03:49:22;9.20;99.90
37050;DHT22;22958;51.232;6.826;2024-03-02T03:51:47;9.20;99.90
37050;DHT22;22958;51.232;6.826;2024-03-02T03:54:13;9.20;99.90
37050;DHT22;22958;51.232;6.826;2024-03-02T03:56:38;9.20;99.90
37050;DHT22;22958;51.232;6.826;2024-03-02T03:59:04;9.20;99.90
37050;DHT22;22958;51.232;6.826;2024-03-02T04:01:30;9.10;99.90
37050;DHT22;22958;51.232;6.826;2024-03-02T04:03:57;9.10;99.90
37050;DHT22;22958;51.232;6.826;2024-03-02T04:06:22;8.90;99.90
37050;DHT22;22958;51.232;6.826;2024-03-02T04:08:48;8.80;99.90
37050;DHT22;22958;51.232;6.826;2024-03-02T04:11:13;8.80;99.90
37050;DHT22;22958;51.232;6.826;2024-03-02T04:13:39;8.80;99.90
37050;DHT22;22958;51.232;6.826;2024-03-02T04:16:05;8.80;99.90
37050;DHT22;22958;51.232;6.826;2024-03-02T04:18:31;8.80;99.90
37050;DHT22;22958;51.232;6.826;2024-03-02T04:20:57;8.70;99.90
37050;DHT22;22958;51.232;6.826;2024-03-02T04:23:25;8.70;99.90
37050;DHT22;22958;51.232;6.826;2024-03-02T04:25:50;8.70;99.90
37050;DHT22;22958;51.232;6.826;2024-03-02T04:28:16;8.60;99.90
37050;DHT22;22958;51.232;6.826;2024-03-02T04:30:42;8.50;99.90
37050;DHT22;22958;51.232;6.826;2024-03-02T04:33:07;8.40;99.90
37050;DHT22;22958;51.232;6.826;2024-03-02T04:35:38;8.30;99.90
37050;DHT22;22958;51.232;6.826;2024-03-02T04:38:03;8.30;99.90
37050;DHT22;22958;51.232;6.826;2024-03-02T04:40:29;8.30;99.90
37050;DHT22;22958;51.232;6.826;2024-03-02T04:42:54;8.40;99.90
37050;DHT22;22958;51.232;6.826;2024-03-02T04:45:20;8.40;99.90
37050;DHT22;22958;51.232;6.826;2024-03-02T04:47:45;8.40;99.90
37050;DHT22;22958;51.232;6.826;2024-03-02T04:50:11;8.30;99.90
37050;DHT22;22958;51.232;6.826;2024-03-02T04:52:37;8.30;99.90
37050;DHT22;22958;51.232;6.826;2024-03-02T04:55:03;8.20;99.90
37050;DHT22;22958;51.232;6.826;2024-03-02T04:57:35;8.30;99.90
37050;DHT22;22958;51.232;6.826;2024-03-02T05:00:01;8.20;99.90
37050;DHT22;22958;51.232;6.826;2024-03-02T05:02:26;8.10;99.90
37050;DHT22;22958;51.232;6.826;2024-03-02T05:04:52;8.10;99.90
37050;DHT22;22958;51.232;6.826;2024-03-02T05:07:17;8.10;99.90
37050;DHT22;22958;51.232;6.826;2024-03-02T05:09:43;8.10;99.90
37050;DHT22;22958;51.232;6.826;2024-03-02T05:12:08;8.00;99.90
37050;DHT22;22958;51.232;6.826;2024-03-02T05:14:37;8.00;99.90
37050;DHT22;22958;51.232;6.826;2024-03-02T05:17:04;8.00;99.90
37050;DHT22;22958;51.232;6.826;2024-03-02T05:19:29;7.90;99.90
37050;DHT22;22958;51.232;6.826;2024-03-02T05:21:54;7.90;99.90
37050;DHT22;22958;51.232;6.826;2024-03-02T05:24:20;7.90;99.90
37050;DHT22;22958;51.232;6.826;2024-03-02T05:26:46;7.90;99.90
37050;DHT22;22958;51.232;6.826;2024-03-02T05:29:11;7.90;99.90
37050;DHT22;22958;51.232;6.826;2024-03-02T05:31:37;7.80;99.90
37050;DHT22;22958;51.232;6.826;2024-03-02T05:34:03;7.80;99.90
37050;DHT22;22958;51.232;6.826;2024-03-02T05:36:28;7.80;99.90
37050;DHT22;22958;51.232;6.826;2024-03-02T05:38:54;7.70;99.90
37050;DHT22;22958;51.232;6.826;2024-03-02T05:41:20;7.70;99.90
37050;DHT22;22958;51.232;6.826;2024-03-02T05:43:46;7.70;99.90
37050;DHT22;22958;51.232;6.826;2024-03-02T05:46:11;7.70;99.90
37050;DHT22;22958;51.232;6.826;2024-03-02T05:48:37;7.70;99.90
37050;DHT22;22958;51.232;6.826;2024-03-02T05:51:02;7.60;99.90
37050;DHT22;22958;51.232;6.826;2024-03-02T05:53:28;7.50;99.90
37050;DHT22;22958;51.232;6.826;2024-03-02T05:55:54;7.60;99.90
37050;DHT22;22958;51.232;6.826;2024-03-02T05:58:21;7.60;99.90
37050;DHT22;22958;51.232;6.826;2024-03-02T06:01:13;7.60;99.90
37050;DHT22;22958;51.232;6.826;2024-03-02T06:03:38;7.60;99.90
37050;DHT22;22958;51.232;6.826;2024-03-02T06:06:04;7.50;99.90
37050;DHT22;22958;51.232;6.826;2024-03-02T06:08:30;7.50;99.90
37050;DHT22;22958;51.232;6.826;2024-03-02T06:10:56;7.60;99.90
37050;DHT22;22958;51.232;6.826;2024-03-02T06:13:22;7.50;99.90
37050;DHT22;22958;51.232;6.826;2024-03-02T06:15:48;7.50;99.90
37050;DHT22;22958;51.232;6.826;2024-03-02T06:18:13;7.50;99.90
37050;DHT22;22958;51.232;6.826;2024-03-02T06:20:39;7.50;99.90
37050;DHT22;22958;51.232;6.826;2024-03-02T06:23:05;7.40;99.90
37050;DHT22;22958;51.232;6.826;2024-03-02T06:25:30;7.40;99.90
37050;DHT22;22958;51.232;6.826;2024-03-02T06:27:56;7.40;99.90
37050;DHT22;22958;51.232;6.826;2024-03-02T06:30:22;7.50;99.90
37050;DHT22;22958;51.232;6.826;2024-03-02T06:32:47;7.50;99.90
37050;DHT22;22958;51.232;6.826;2024-03-02T06:35:13;7.50;99.90
37050;DHT22;22958;51.232;6.826;2024-03-02T06:37:39;7.40;99.90
37050;DHT22;22958;51.232;6.826;2024-03-02T06:40:06;7.50;99.90
37050;DHT22;22958;51.232;6.826;2024-03-02T06:42:33;7.40;99.90
37050;DHT22;22958;51.232;6.826;2024-03-02T06:44:59;7.40;99.90
37050;DHT22;22958;51.232;6.826;2024-03-02T06:47:25;7.50;99.90
37050;DHT22;22958;51.232;6.826;2024-03-02T06:49:50;7.50;99.90
37050;DHT22;22958;51.232;6.826;2024-03-02T06:52:16;7.60;99.90
37050;DHT22;22958;51.232;6.826;2024-03-02T06:54:42;7.60;99.90
37050;DHT22;22958;51.232;6.826;2024-03-02T06:57:07;7.60;99.90
37050;DHT22;22958;51.232;6.826;2024-03-02T06:59:33;7.60;99.90
37050;DHT22;22958;51.232;6.826;2024-03-02T07:01:59;7.70;99.90
37050;DHT22;22958;51.232;6.826;2024-03-02T07:04:24;7.70;99.90
37050;DHT22;22958;51.232;6.826;2024-03-02T07:06:50;7.80;99.90
37050;DHT22;22958;51.232;6.826;2024-03-02T07:09:16;7.80;99.90
37050;DHT22;22958;51.232;6.826;2024-03-02T07:11:42;7.80;99.90
37050;DHT22;22958;51.232;6.826;2024-03-02T07:14:07;7.70;99.90
37050;DHT22;22958;51.232;6.826;2024-03-02T07:16:33;7.80;99.90
37050;DHT22;22958;51.232;6.826;2024-03-02T07:19:00;7.90;99.90
37050;DHT22;22958;51.232;6.826;2024-03-02T07:21:27;7.90;99.90
37050;DHT22;22958;51.232;6.826;2024-03-02T07:23:52;8.00;99.90
37050;DHT22;22958;51.232;6.826;2024-03-02T07:26:18;8.10;99.90
37050;DHT22;22958;51.232;6.826;2024-03-02T07:28:45;8.20;99.90
37050;DHT22;22958;51.232;6.826;2024-03-02T07:31:11;8.30;99.90
37050;DHT22;22958;51.232;6.826;2024-03-02T07:33:37;8.40;99.90
37050;DHT22;22958;51.232;6.826;2024-03-02T07:36:02;8.60;99.90
37050;DHT22;22958;51.232;6.826;2024-03-02T07:38:28;8.70;99.90
37050;DHT22;22958;51.232;6.826;2024-03-02T07:40:54;8.80;99.90
37050;DHT22;22958;51.232;6.826;2024-03-02T07:43:21;8.90;99.90
37050;DHT22;22958;51.232;6.826;2024-03-02T07:45:47;9.10;99.90
37050;DHT22;22958;51.232;6.826;2024-03-02T07:48:13;9.10;99.90
37050;DHT22;22958;51.232;6.826;2024-03-02T07:50:38;9.10;99.90
37050;DHT22;22958;51.232;6.826;2024-03-02T07:53:05;9.20;99.90
37050;DHT22;22958;51.232;6.826;2024-03-02T07:55:30;9.40;99.90
37050;DHT22;22958;51.232;6.826;2024-03-02T07:58:00;9.50;99.90
37050;DHT22;22958;51.232;6.826;2024-03-02T08:00:25;9.50;99.90
37050;DHT22;22958;51.232;6.826;2024-03-02T08:02:52;9.50;99.90
37050;DHT22;22958;51.232;6.826;2024-03-02T08:05:18;9.50;99.90
37050;DHT22;22958;51.232;6.826;2024-03-02T08:07:44;9.50;99.90
37050;DHT22;22958;51.232;6.826;2024-03-02T08:10:10;9.60;99.90
37050;DHT22;22958;51.232;6.826;2024-03-02T08:12:36;9.70;99.90
37050;DHT22;22958;51.232;6.826;2024-03-02T08:15:02;9.90;99.90
37050;DHT22;22958;51.232;6.826;2024-03-02T08:17:27;9.90;99.90
37050;DHT22;22958;51.232;6.826;2024-03-02T08:19:53;10.10;99.90
37050;DHT22;22958;51.232;6.826;2024-03-02T08:22:19;10.00;99.90
37050;DHT22;22958;51.232;6.826;2024-03-02T08:24:45;10.20;99.90
37050;DHT22;22958;51.232;6.826;2024-03-02T08:27:11;10.10;99.90
37050;DHT22;22958;51.232;6.826;2024-03-02T08:29:37;10.00;99.90
37050;DHT22;22958;51.232;6.826;2024-03-02T08:32:03;10.20;99.90
37050;DHT22;22958;51.232;6.826;2024-03-02T08:34:28;10.20;99.90
37050;DHT22;22958;51.232;6.826;2024-03-02T08:36:54;10.20;99.90
37050;DHT22;22958;51.232;6.826;2024-03-02T08:39:19;10.30;99.90
37050;DHT22;22958;51.232;6.826;2024-03-02T08:41:46;10.30;99.90
37050;DHT22;22958;51.232;6.826;2024-03-02T08:44:12;10.30;99.90
37050;DHT22;22958;51.232;6.826;2024-03-02T08:46:38;10.30;99.90
37050;DHT22;22958;51.232;6.826;2024-03-02T08:49:04;10.40;99.90
37050;DHT22;22958;51.232;6.826;2024-03-02T08:51:30;10.40;99.90
37050;DHT22;22958;51.232;6.826;2024-03-02T08:53:56;10.40;99.90
37050;DHT22;22958;51.232;6.826;2024-03-02T08:56:21;10.40;99.90
37050;DHT22;22958;51.232;6.826;2024-03-02T08:58:49;10.40;99.90
37050;DHT22;22958;51.232;6.826;2024-03-02T09:01:14;10.40;99.90
37050;DHT22;22958;51.232;6.826;2024-03-02T09:03:40;10.40;99.90
37050;DHT22;22958;51.232;6.826;2024-03-02T09:06:06;10.40;99.90
37050;DHT22;22958;51.232;6.826;2024-03-02T09:08:32;10.70;99.90
37050;DHT22;22958;51.232;6.826;2024-03-02T09:10:59;10.70;99.90
37050;DHT22;22958;51.232;6.826;2024-03-02T09:13:24;10.70;99.90
37050;DHT22;22958;51.232;6.826;2024-03-02T09:15:50;10.90;99.90
37050;DHT22;22958;51.232;6.826;2024-03-02T09:18:15;10.90;99.90
37050;DHT22;22958;51.232;6.826;2024-03-02T09:20:41;10.90;99.90
37050;DHT22;22958;51.232;6.826;2024-03-02T09:23:06;11.00;99.90
37050;DHT22;22958;51.232;6.826;2024-03-02T09:25:32;11.10;99.90
37050;DHT22;22958;51.232;6.826;2024-03-02T09:27:58;11.10;99.90
37050;DHT22;22958;51.232;6.826;2024-03-02T09:30:26;11.30;99.90
37050;DHT22;22958;51.232;6.826;2024-03-02T09:32:52;11.30;99.90
37050;DHT22;22958;51.232;6.826;2024-03-02T09:35:17;11.40;99.90
37050;DHT22;22958;51.232;6.826;2024-03-02T09:37:43;11.50;99.90
37050;DHT22;22958;51.232;6.826;2024-03-02T09:40:09;11.60;99.90
37050;DHT22;22958;51.232;6.826;2024-03-02T09:42:35;11.70;99.90
37050;DHT22;22958;51.232;6.826;2024-03-02T09:45:02;11.90;99.10
37050;DHT22;22958;51.232;6.826;2024-03-02T09:47:27;12.00;96.30
37050;DHT22;22958;51.232;6.826;2024-03-02T09:49:53;11.90;96.80
37050;DHT22;22958;51.232;6.826;2024-03-02T09:52:22;12.00;95.20
37050;DHT22;22958;51.232;6.826;2024-03-02T09:54:48;12.10;94.10
37050;DHT22;22958;51.232;6.826;2024-03-02T09:57:14;12.30;94.70
37050;DHT22;22958;51.232;6.826;2024-03-02T09:59:40;12.20;92.90
37050;DHT22;22958;51.232;6.826;2024-03-02T10:02:05;11.80;94.80
37050;DHT22;22958;51.232;6.826;2024-03-02T10:04:33;11.90;95.60
37050;DHT22;22958;51.232;6.826;2024-03-02T10:07:14;12.10;94.60
37050;DHT22;22958;51.232;6.826;2024-03-02T10:09:41;12.30;93.30
37050;DHT22;22958;51.232;6.826;2024-03-02T10:12:09;12.10;93.20
37050;DHT22;22958;51.232;6.826;2024-03-02T10:14:35;12.20;92.40
37050;DHT22;22958;51.232;6.826;2024-03-02T10:17:13;12.30;92.40
37050;DHT22;22958;51.232;6.826;2024-03-02T10:19:39;12.20;92.10
37050;DHT22;22958;51.232;6.826;2024-03-02T10:22:07;12.20;92.30
37050;DHT22;22958;51.232;6.826;2024-03-02T10:24:41;12.20;92.30
37050;DHT22;22958;51.232;6.826;2024-03-02T10:27:08;12.30;91.90
37050;DHT22;22958;51.232;6.826;2024-03-02T10:29:39;12.30;92.20
37050;DHT22;22958;51.232;6.826;2024-03-02T10:32:09;12.50;92.40
37050;DHT22;22958;51.232;6.826;2024-03-02T10:34:37;12.80;91.20
37050;DHT22;22958;51.232;6.826;2024-03-02T10:37:03;12.90;90.80
37050;DHT22;22958;51.232;6.826;2024-03-02T10:39:29;12.70;90.30
37050;DHT22;22958;51.232;6.826;2024-03-02T10:41:56;12.70;91.80
37050;DHT22;22958;51.232;6.826;2024-03-02T10:44:22;12.70;90.50
37050;DHT22;22958;51.232;6.826;2024-03-02T10:46:50;12.80;91.90
37050;DHT22;22958;51.232;6.826;2024-03-02T10:49:19;12.80;91.20
37050;DHT22;22958;51.232;6.826;2024-03-02T10:51:45;13.10;90.00
37050;DHT22;22958;51.232;6.826;2024-03-02T10:54:11;13.00;89.40
37050;DHT22;22958;51.232;6.826;2024-03-02T10:56:41;13.00;90.30
37050;DHT22;22958;51.232;6.826;2024-03-02T11:01:55;13.20;86.60
37050;DHT22;22958;51.232;6.826;2024-03-02T11:04:21;13.20;85.50
37050;DHT22;22958;51.232;6.826;2024-03-02T11:06:50;13.60;84.00
37050;DHT22;22958;51.232;6.826;2024-03-02T11:09:18;14.10;78.90
37050;DHT22;22958;51.232;6.826;2024-03-02T11:11:45;14.90;73.20
37050;DHT22;22958;51.232;6.826;2024-03-02T11:14:14;15.00;68.60
37050;DHT22;22958;51.232;6.826;2024-03-02T11:16:41;15.10;65.60
37050;DHT22;22958;51.232;6.826;2024-03-02T11:19:12;15.00;65.60
37050;DHT22;22958;51.232;6.826;2024-03-02T11:21:38;15.30;64.00
37050;DHT22;22958;51.232;6.826;2024-03-02T11:26:53;16.40;56.20
37050;DHT22;22958;51.232;6.826;2024-03-02T11:32:06;16.00;55.00
37050;DHT22;22958;51.232;6.826;2024-03-02T11:34:38;16.70;52.80
37050;DHT22;22958;51.232;6.826;2024-03-02T11:37:11;16.60;52.50
37050;DHT22;22958;51.232;6.826;2024-03-02T11:39:38;16.30;52.20
37050;DHT22;22958;51.232;6.826;2024-03-02T11:42:08;16.20;52.40
37050;DHT22;22958;51.232;6.826;2024-03-02T11:44:35;16.10;52.00
37050;DHT22;22958;51.232;6.826;2024-03-02T11:47:02;16.80;51.40
37050;DHT22;22958;51.232;6.826;2024-03-02T11:49:44;16.80;49.10
37050;DHT22;22958;51.232;6.826;2024-03-02T11:52:12;16.50;49.20
37050;DHT22;22958;51.232;6.826;2024-03-02T11:54:39;16.90;49.80
37050;DHT22;22958;51.232;6.826;2024-03-02T11:57:06;16.80;48.80
37050;DHT22;22958;51.232;6.826;2024-03-02T11:59:32;17.00;47.30
37050;DHT22;22958;51.232;6.826;2024-03-02T12:01:59;16.90;47.30
37050;DHT22;22958;51.232;6.826;2024-03-02T12:04:25;16.80;47.00
37050;DHT22;22958;51.232;6.826;2024-03-02T12:06:58;16.90;47.70
37050;DHT22;22958;51.232;6.826;2024-03-02T12:09:28;18.10;44.70
37050;DHT22;22958;51.232;6.826;2024-03-02T12:12:08;17.30;44.00
37050;DHT22;22958;51.232;6.826;2024-03-02T12:14:35;16.40;46.20
37050;DHT22;22958;51.232;6.826;2024-03-02T12:17:01;15.90;49.00
37050;DHT22;22958;51.232;6.826;2024-03-02T12:19:27;15.70;50.00
37050;DHT22;22958;51.232;6.826;2024-03-02T12:21:59;15.40;50.80
37050;DHT22;22958;51.232;6.826;2024-03-02T12:24:27;15.10;52.30
37050;DHT22;22958;51.232;6.826;2024-03-02T12:26:53;14.50;53.80
37050;DHT22;22958;51.232;6.826;2024-03-02T12:29:19;14.30;55.20
37050;DHT22;22958;51.232;6.826;2024-03-02T12:31:45;14.30;54.80
37050;DHT22;22958;51.232;6.826;2024-03-02T12:34:14;14.10;56.10
37050;DHT22;22958;51.232;6.826;2024-03-02T12:36:40;14.00;56.80
37050;DHT22;22958;51.232;6.826;2024-03-02T12:39:09;14.00;58.10
37050;DHT22;22958;51.232;6.826;2024-03-02T12:41:38;14.10;58.30
37050;DHT22;22958;51.232;6.826;2024-03-02T12:44:05;14.40;58.00
37050;DHT22;22958;51.232;6.826;2024-03-02T12:46:32;14.50;57.90
37050;DHT22;22958;51.232;6.826;2024-03-02T12:48:58;14.30;57.40
37050;DHT22;22958;51.232;6.826;2024-03-02T12:51:24;14.40;58.10
37050;DHT22;22958;51.232;6.826;2024-03-02T12:53:57;14.60;57.20
37050;DHT22;22958;51.232;6.826;2024-03-02T12:56:24;14.70;56.50
37050;DHT22;22958;51.232;6.826;2024-03-02T12:58:59;14.90;55.50
37050;DHT22;22958;51.232;6.826;2024-03-02T13:01:25;14.80;56.50
37050;DHT22;22958;51.232;6.826;2024-03-02T13:03:52;14.30;57.60
37050;DHT22;22958;51.232;6.826;2024-03-02T13:06:18;14.30;58.60
37050;DHT22;22958;51.232;6.826;2024-03-02T13:08:45;14.30;59.70
37050;DHT22;22958;51.232;6.826;2024-03-02T13:11:11;14.20;58.80
37050;DHT22;22958;51.232;6.826;2024-03-02T13:13:36;14.10;58.60
37050;DHT22;22958;51.232;6.826;2024-03-02T13:16:03;14.00;59.40
37050;DHT22;22958;51.232;6.826;2024-03-02T13:18:29;13.90;60.60
37050;DHT22;22958;51.232;6.826;2024-03-02T13:20:56;13.90;60.80
37050;DHT22;22958;51.232;6.826;2024-03-02T13:23:22;14.10;60.70
37050;DHT22;22958;51.232;6.826;2024-03-02T13:25:47;14.00;59.60
37050;DHT22;22958;51.232;6.826;2024-03-02T13:28:13;14.10;60.30
37050;DHT22;22958;51.232;6.826;2024-03-02T13:30:38;14.00;60.10
37050;DHT22;22958;51.232;6.826;2024-03-02T13:33:04;13.90;59.90
37050;DHT22;22958;51.232;6.826;2024-03-02T13:35:30;13.90;60.10
37050;DHT22;22958;51.232;6.826;2024-03-02T13:37:55;14.00;60.60
37050;DHT22;22958;51.232;6.826;2024-03-02T13:40:21;14.20;59.60
37050;DHT22;22958;51.232;6.826;2024-03-02T13:42:49;14.60;59.00
37050;DHT22;22958;51.232;6.826;2024-03-02T13:45:16;15.00;56.40
37050;DHT22;22958;51.232;6.826;2024-03-02T13:47:43;15.20;56.90
37050;DHT22;22958;51.232;6.826;2024-03-02T13:50:09;15.30;55.70
37050;DHT22;22958;51.232;6.826;2024-03-02T13:52:35;15.00;56.30
37050;DHT22;22958;51.232;6.826;2024-03-02T13:55:01;14.70;57.60
37050;DHT22;22958;51.232;6.826;2024-03-02T13:57:26;14.70;57.60
37050;DHT22;22958;51.232;6.826;2024-03-02T13:59:52;14.60;58.50
37050;DHT22;22958;51.232;6.826;2024-03-02T14:02:18;14.40;58.90
37050;DHT22;22958;51.232;6.826;2024-03-02T14:04:44;14.30;58.40
37050;DHT22;22958;51.232;6.826;2024-03-02T14:07:10;14.30;58.70
37050;DHT22;22958;51.232;6.826;2024-03-02T14:09:38;14.20;59.00
37050;DHT22;22958;51.232;6.826;2024-03-02T14:12:04;14.40;59.20
37050;DHT22;22958;51.232;6.826;2024-03-02T14:14:30;14.50;59.20
37050;DHT22;22958;51.232;6.826;2024-03-02T14:16:56;14.50;58.60
37050;DHT22;22958;51.232;6.826;2024-03-02T14:19:25;14.30;57.70
37050;DHT22;22958;51.232;6.826;2024-03-02T14:21:51;14.30;58.10
37050;DHT22;22958;51.232;6.826;2024-03-02T14:24:16;14.30;59.20
37050;DHT22;22958;51.232;6.826;2024-03-02T14:26:42;14.30;59.10
37050;DHT22;22958;51.232;6.826;2024-03-02T14:29:08;14.50;59.00
37050;DHT22;22958;51.232;6.826;2024-03-02T14:31:34;14.60;57.80
37050;DHT22;22958;51.232;6.826;2024-03-02T14:33:59;14.60;58.20
37050;DHT22;22958;51.232;6.826;2024-03-02T14:36:28;14.70;58.20
37050;DHT22;22958;51.232;6.826;2024-03-02T14:38:54;14.70;56.90
37050;DHT22;22958;51.232;6.826;2024-03-02T14:41:20;14.80;56.80
37050;DHT22;22958;51.232;6.826;2024-03-02T14:43:45;14.90;56.50
37050;DHT22;22958;51.232;6.826;2024-03-02T14:46:11;14.80;56.70
37050;DHT22;22958;51.232;6.826;2024-03-02T14:48:37;15.10;56.30
37050;DHT22;22958;51.232;6.826;2024-03-02T14:51:03;15.30;55.90
37050;DHT22;22958;51.232;6.826;2024-03-02T14:53:29;15.40;55.80
37050;DHT22;22958;51.232;6.826;2024-03-02T14:55:55;15.40;55.10
37050;DHT22;22958;51.232;6.826;2024-03-02T14:58:20;15.40;55.30
37050;DHT22;22958;51.232;6.826;2024-03-02T15:00:46;16.00;54.60
37050;DHT22;22958;51.232;6.826;2024-03-02T15:03:11;16.80;51.30
37050;DHT22;22958;51.232;6.826;2024-03-02T15:05:37;16.70;50.30
37050;DHT22;22958;51.232;6.826;2024-03-02T15:08:04;16.50;51.00
37050;DHT22;22958;51.232;6.826;2024-03-02T15:10:30;17.00;50.30
37050;DHT22;22958;51.232;6.826;2024-03-02T15:12:57;17.80;48.10
37050;DHT22;22958;51.232;6.826;2024-03-02T15:15:22;17.90;46.10
37050;DHT22;22958;51.232;6.826;2024-03-02T15:17:48;17.10;46.90
37050;DHT22;22958;51.232;6.826;2024-03-02T15:20:14;16.70;48.40
37050;DHT22;22958;51.232;6.826;2024-03-02T15:22:40;16.40;49.10
37050;DHT22;22958;51.232;6.826;2024-03-02T15:25:06;16.30;50.20
37050;DHT22;22958;51.232;6.826;2024-03-02T15:27:31;16.40;49.50
37050;DHT22;22958;51.232;6.826;2024-03-02T15:29:57;16.30;49.20
37050;DHT22;22958;51.232;6.826;2024-03-02T15:32:23;15.90;49.50
37050;DHT22;22958;51.232;6.826;2024-03-02T15:34:48;16.00;49.30
37050;DHT22;22958;51.232;6.826;2024-03-02T15:37:14;15.80;49.80
37050;DHT22;22958;51.232;6.826;2024-03-02T15:39:39;15.60;49.80
37050;DHT22;22958;51.232;6.826;2024-03-02T15:42:05;15.20;51.70
37050;DHT22;22958;51.232;6.826;2024-03-02T15:44:31;15.00;52.60